Terminal Aerodrome Forecast
Issued by NWS Greer, SC

Home | Current Version | Previous Version | Text Only | Print | Product List | Glossary On
Versions: 1 2 3 4 5 6 7 8 9 10 11 12 13 14 15 16 17 18 19 20 21 22 23 24 25 26 27 28 29 30 31 32 33 34 35 36 37 38 39 40 41
000
FTUS42 KGSP 231733
TAFAVL
TAF
KAVL 231733Z 2318/2418 VRB03KT P6SM VCTS SCT040CB BKN200
      TEMPO 2318/2320 3SM TSRA BKN035CB
     FM232000 20004KT P6SM VCSH BKN050
     FM240100 VRB03KT P6SM SCT060 BKN200
     FM240700 VRB02KT 3SM BR SCT005
     FM240900 00000KT 1SM BR OVC003
     FM241300 33003KT P6SM FEW035=

USA.gov is the U.S. government's official web portal to all federal, state and local government web resources and services.